sensor_id;sensor_type;location;lat;lon;timestamp;temperature;humidity
5118;DHT22;2578;51.622;7.046;2023-09-08T00:00:57;16.30;1.00
5118;DHT22;2578;51.622;7.046;2023-09-08T00:05:49;16.10;1.00
5118;DHT22;2578;51.622;7.046;2023-09-08T00:08:14;16.10;99.90
5118;DHT22;2578;51.622;7.046;2023-09-08T00:10:40;16.00;1.00
5118;DHT22;2578;51.622;7.046;2023-09-08T00:13:06;16.10;1.00
5118;DHT22;2578;51.622;7.046;2023-09-08T00:15:34;16.20;99.90
5118;DHT22;2578;51.622;7.046;2023-09-08T00:20:26;16.00;99.90
5118;DHT22;2578;51.622;7.046;2023-09-08T00:25:18;15.70;1.00
5118;DHT22;2578;51.622;7.046;2023-09-08T00:27:44;15.70;99.90
5118;DHT22;2578;51.622;7.046;2023-09-08T00:30:09;15.80;99.90
5118;DHT22;2578;51.622;7.046;2023-09-08T00:32:36;15.80;99.90
5118;DHT22;2578;51.622;7.046;2023-09-08T00:35:01;15.80;99.90
5118;DHT22;2578;51.622;7.046;2023-09-08T00:37:27;15.80;99.90
5118;DHT22;2578;51.622;7.046;2023-09-08T00:39:52;15.80;99.90
5118;DHT22;2578;51.622;7.046;2023-09-08T00:42:18;15.80;99.90
5118;DHT22;2578;51.622;7.046;2023-09-08T00:44:44;15.70;99.90
5118;DHT22;2578;51.622;7.046;2023-09-08T00:47:09;15.70;99.90
5118;DHT22;2578;51.622;7.046;2023-09-08T00:49:35;15.60;99.90
5118;DHT22;2578;51.622;7.046;2023-09-08T00:52:00;15.70;99.90
5118;DHT22;2578;51.622;7.046;2023-09-08T00:54:26;15.40;99.90
5118;DHT22;2578;51.622;7.046;2023-09-08T00:56:58;15.70;99.90
5118;DHT22;2578;51.622;7.046;2023-09-08T00:59:26;15.80;99.90
5118;DHT22;2578;51.622;7.046;2023-09-08T01:01:52;15.70;99.90
5118;DHT22;2578;51.622;7.046;2023-09-08T01:04:18;15.60;99.90
5118;DHT22;2578;51.622;7.046;2023-09-08T01:06:45;15.40;99.90
5118;DHT22;2578;51.622;7.046;2023-09-08T01:09:11;15.30;1.00
5118;DHT22;2578;51.622;7.046;2023-09-08T01:11:37;15.30;1.00
5118;DHT22;2578;51.622;7.046;2023-09-08T01:14:02;15.30;1.00
5118;DHT22;2578;51.622;7.046;2023-09-08T01:16:28;15.30;1.00
5118;DHT22;2578;51.622;7.046;2023-09-08T01:18:54;15.30;1.00
5118;DHT22;2578;51.622;7.046;2023-09-08T01:27:02;15.50;1.00
5118;DHT22;2578;51.622;7.046;2023-09-08T01:29:29;15.50;1.00
5118;DHT22;2578;51.622;7.046;2023-09-08T01:31:55;15.40;1.00
5118;DHT22;2578;51.622;7.046;2023-09-08T01:34:22;15.30;1.00
5118;DHT22;2578;51.622;7.046;2023-09-08T01:36:47;15.30;1.00
5118;DHT22;2578;51.622;7.046;2023-09-08T01:39:13;15.20;1.00
5118;DHT22;2578;51.622;7.046;2023-09-08T01:41:39;15.20;1.00
5118;DHT22;2578;51.622;7.046;2023-09-08T01:44:04;15.20;1.00
5118;DHT22;2578;51.622;7.046;2023-09-08T01:46:34;15.30;1.00
5118;DHT22;2578;51.622;7.046;2023-09-08T01:48:59;15.30;1.00
5118;DHT22;2578;51.622;7.046;2023-09-08T01:51:25;15.30;1.00
5118;DHT22;2578;51.622;7.046;2023-09-08T01:53:51;15.20;1.00
5118;DHT22;2578;51.622;7.046;2023-09-08T01:56:16;15.10;1.00
5118;DHT22;2578;51.622;7.046;2023-09-08T01:58:42;15.80;1.00
5118;DHT22;2578;51.622;7.046;2023-09-08T02:01:07;15.10;1.00
5118;DHT22;2578;51.622;7.046;2023-09-08T02:03:33;15.10;1.00
5118;DHT22;2578;51.622;7.046;2023-09-08T02:05:58;15.00;1.00
5118;DHT22;2578;51.622;7.046;2023-09-08T02:08:24;14.90;1.00
5118;DHT22;2578;51.622;7.046;2023-09-08T02:10:50;15.90;1.00
5118;DHT22;2578;51.622;7.046;2023-09-08T02:13:15;14.90;1.00
5118;DHT22;2578;51.622;7.046;2023-09-08T02:15:41;14.80;1.00
5118;DHT22;2578;51.622;7.046;2023-09-08T02:18:07;14.90;1.00
5118;DHT22;2578;51.622;7.046;2023-09-08T02:20:33;14.80;1.00
5118;DHT22;2578;51.622;7.046;2023-09-08T02:23:04;14.90;1.00
5118;DHT22;2578;51.622;7.046;2023-09-08T02:25:30;15.00;1.20
5118;DHT22;2578;51.622;7.046;2023-09-08T02:27:56;15.00;1.00
5118;DHT22;2578;51.622;7.046;2023-09-08T02:30:22;14.90;1.00
5118;DHT22;2578;51.622;7.046;2023-09-08T02:32:47;14.80;1.00
5118;DHT22;2578;51.622;7.046;2023-09-08T02:37:39;14.60;31.00
5118;DHT22;2578;51.622;7.046;2023-09-08T02:40:06;14.70;77.40
5118;DHT22;2578;51.622;7.046;2023-09-08T02:42:32;14.70;23.50
5118;DHT22;2578;51.622;7.046;2023-09-08T02:44:57;14.60;1.00
5118;DHT22;2578;51.622;7.046;2023-09-08T02:47:23;14.60;1.00
5118;DHT22;2578;51.622;7.046;2023-09-08T02:49:49;14.50;1.00
5118;DHT22;2578;51.622;7.046;2023-09-08T02:52:14;14.80;1.00
5118;DHT22;2578;51.622;7.046;2023-09-08T02:54:40;14.50;6.40
5118;DHT22;2578;51.622;7.046;2023-09-08T02:57:06;14.40;1.00
5118;DHT22;2578;51.622;7.046;2023-09-08T02:59:31;14.40;6.20
5118;DHT22;2578;51.622;7.046;2023-09-08T03:01:57;14.40;50.10
5118;DHT22;2578;51.622;7.046;2023-09-08T03:04:26;14.50;99.10
5118;DHT22;2578;51.622;7.046;2023-09-08T03:06:52;14.50;99.90
5118;DHT22;2578;51.622;7.046;2023-09-08T03:09:18;14.40;99.90
5118;DHT22;2578;51.622;7.046;2023-09-08T03:11:43;15.10;99.90
5118;DHT22;2578;51.622;7.046;2023-09-08T03:14:09;14.60;99.90
5118;DHT22;2578;51.622;7.046;2023-09-08T03:16:34;14.40;99.90
5118;DHT22;2578;51.622;7.046;2023-09-08T03:19:00;14.40;99.90
5118;DHT22;2578;51.622;7.046;2023-09-08T03:21:25;14.40;99.90
5118;DHT22;2578;51.622;7.046;2023-09-08T03:23:51;15.60;99.90
5118;DHT22;2578;51.622;7.046;2023-09-08T03:26:17;14.40;99.90
5118;DHT22;2578;51.622;7.046;2023-09-08T03:28:43;14.50;99.90
5118;DHT22;2578;51.622;7.046;2023-09-08T03:31:08;14.40;99.90
5118;DHT22;2578;51.622;7.046;2023-09-08T03:33:34;14.40;99.90
5118;DHT22;2578;51.622;7.046;2023-09-08T03:36:00;14.30;99.90
5118;DHT22;2578;51.622;7.046;2023-09-08T03:38:26;14.30;99.90
5118;DHT22;2578;51.622;7.046;2023-09-08T03:40:52;14.30;99.90
5118;DHT22;2578;51.622;7.046;2023-09-08T03:43:17;14.30;99.90
5118;DHT22;2578;51.622;7.046;2023-09-08T03:45:43;14.20;99.90
5118;DHT22;2578;51.622;7.046;2023-09-08T03:48:09;14.20;99.90
5118;DHT22;2578;51.622;7.046;2023-09-08T03:50:35;14.20;99.90
5118;DHT22;2578;51.622;7.046;2023-09-08T03:53:01;14.10;99.90
5118;DHT22;2578;51.622;7.046;2023-09-08T03:55:27;14.20;99.90
5118;DHT22;2578;51.622;7.046;2023-09-08T03:57:52;14.20;99.90
5118;DHT22;2578;51.622;7.046;2023-09-08T04:00:18;14.10;99.90
5118;DHT22;2578;51.622;7.046;2023-09-08T04:02:47;14.00;99.90
5118;DHT22;2578;51.622;7.046;2023-09-08T04:05:13;14.10;1.00
5118;DHT22;2578;51.622;7.046;2023-09-08T04:07:38;14.20;1.00
5118;DHT22;2578;51.622;7.046;2023-09-08T04:10:04;14.30;1.00
5118;DHT22;2578;51.622;7.046;2023-09-08T04:12:30;14.20;1.00
5118;DHT22;2578;51.622;7.046;2023-09-08T04:14:56;14.30;1.00
5118;DHT22;2578;51.622;7.046;2023-09-08T04:17:22;14.30;1.00
5118;DHT22;2578;51.622;7.046;2023-09-08T04:19:47;14.40;1.00
5118;DHT22;2578;51.622;7.046;2023-09-08T04:22:13;14.40;1.00
5118;DHT22;2578;51.622;7.046;2023-09-08T04:24:39;14.50;1.00
5118;DHT22;2578;51.622;7.046;2023-09-08T04:27:04;14.50;1.00
5118;DHT22;2578;51.622;7.046;2023-09-08T04:29:30;14.50;1.00
5118;DHT22;2578;51.622;7.046;2023-09-08T04:31:55;14.50;99.90
5118;DHT22;2578;51.622;7.046;2023-09-08T04:34:21;14.40;99.90
5118;DHT22;2578;51.622;7.046;2023-09-08T04:36:47;14.40;99.90
5118;DHT22;2578;51.622;7.046;2023-09-08T04:39:12;14.50;99.90
5118;DHT22;2578;51.622;7.046;2023-09-08T04:41:40;14.50;99.90
5118;DHT22;2578;51.622;7.046;2023-09-08T04:44:06;14.40;99.90
5118;DHT22;2578;51.622;7.046;2023-09-08T04:46:31;14.40;99.90
5118;DHT22;2578;51.622;7.046;2023-09-08T04:48:57;14.30;99.90
5118;DHT22;2578;51.622;7.046;2023-09-08T04:51:22;14.40;99.90
5118;DHT22;2578;51.622;7.046;2023-09-08T04:53:48;14.40;99.90
5118;DHT22;2578;51.622;7.046;2023-09-08T04:56:14;14.40;99.90
5118;DHT22;2578;51.622;7.046;2023-09-08T04:58:39;14.30;99.90
5118;DHT22;2578;51.622;7.046;2023-09-08T05:01:05;14.30;99.90
5118;DHT22;2578;51.622;7.046;2023-09-08T05:03:31;14.40;99.90
5118;DHT22;2578;51.622;7.046;2023-09-08T05:05:57;14.20;99.90
5118;DHT22;2578;51.622;7.046;2023-09-08T05:08:22;14.00;99.90
5118;DHT22;2578;51.622;7.046;2023-09-08T05:10:48;14.10;99.90
5118;DHT22;2578;51.622;7.046;2023-09-08T05:15:39;14.20;1.00
5118;DHT22;2578;51.622;7.046;2023-09-08T05:18:07;14.20;1.00
5118;DHT22;2578;51.622;7.046;2023-09-08T05:20:33;14.30;1.00
5118;DHT22;2578;51.622;7.046;2023-09-08T05:22:58;14.30;1.00
5118;DHT22;2578;51.622;7.046;2023-09-08T05:25:24;14.40;1.00
5118;DHT22;2578;51.622;7.046;2023-09-08T05:27:50;14.50;1.00
5118;DHT22;2578;51.622;7.046;2023-09-08T05:30:15;14.50;1.00
5118;DHT22;2578;51.622;7.046;2023-09-08T05:32:41;14.50;1.00
5118;DHT22;2578;51.622;7.046;2023-09-08T05:35:07;14.60;1.00
5118;DHT22;2578;51.622;7.046;2023-09-08T05:37:32;14.60;1.00
5118;DHT22;2578;51.622;7.046;2023-09-08T05:39:58;14.50;1.00
5118;DHT22;2578;51.622;7.046;2023-09-08T05:42:23;14.50;1.00
5118;DHT22;2578;51.622;7.046;2023-09-08T05:44:49;14.70;25.90
5118;DHT22;2578;51.622;7.046;2023-09-08T05:47:15;14.80;54.60
5118;DHT22;2578;51.622;7.046;2023-09-08T05:49:40;15.00;99.90
5118;DHT22;2578;51.622;7.046;2023-09-08T05:52:06;15.40;99.90
5118;DHT22;2578;51.622;7.046;2023-09-08T05:54:31;15.70;99.90
5118;DHT22;2578;51.622;7.046;2023-09-08T05:56:57;15.80;99.90
5118;DHT22;2578;51.622;7.046;2023-09-08T05:59:23;16.10;99.90
5118;DHT22;2578;51.622;7.046;2023-09-08T06:01:51;16.60;99.90
5118;DHT22;2578;51.622;7.046;2023-09-08T06:04:16;16.60;99.90
5118;DHT22;2578;51.622;7.046;2023-09-08T06:06:45;17.10;99.90
5118;DHT22;2578;51.622;7.046;2023-09-08T06:09:10;17.10;99.90
5118;DHT22;2578;51.622;7.046;2023-09-08T06:11:37;17.40;99.90
5118;DHT22;2578;51.622;7.046;2023-09-08T06:14:03;17.60;99.90
5118;DHT22;2578;51.622;7.046;2023-09-08T06:16:28;18.20;99.90
5118;DHT22;2578;51.622;7.046;2023-09-08T06:18:54;18.20;99.90
5118;DHT22;2578;51.622;7.046;2023-09-08T06:21:19;18.40;99.90
5118;DHT22;2578;51.622;7.046;2023-09-08T06:23:45;18.70;99.90
5118;DHT22;2578;51.622;7.046;2023-09-08T06:26:12;18.90;99.90
5118;DHT22;2578;51.622;7.046;2023-09-08T06:28:37;19.40;99.90
5118;DHT22;2578;51.622;7.046;2023-09-08T06:31:04;19.40;99.90
5118;DHT22;2578;51.622;7.046;2023-09-08T06:33:30;19.60;99.90
5118;DHT22;2578;51.622;7.046;2023-09-08T06:35:55;19.90;1.00
5118;DHT22;2578;51.622;7.046;2023-09-08T06:38:21;20.10;1.00
5118;DHT22;2578;51.622;7.046;2023-09-08T06:40:46;20.40;1.00
5118;DHT22;2578;51.622;7.046;2023-09-08T06:43:13;20.70;1.00
5118;DHT22;2578;51.622;7.046;2023-09-08T06:45:39;21.10;99.90
5118;DHT22;2578;51.622;7.046;2023-09-08T06:48:05;21.20;99.90
5118;DHT22;2578;51.622;7.046;2023-09-08T06:50:31;21.80;99.90
5118;DHT22;2578;51.622;7.046;2023-09-08T06:52:57;21.70;99.90
5118;DHT22;2578;51.622;7.046;2023-09-08T06:55:22;22.20;99.90
5118;DHT22;2578;51.622;7.046;2023-09-08T06:57:48;22.30;99.90
5118;DHT22;2578;51.622;7.046;2023-09-08T07:00:14;22.40;99.90
5118;DHT22;2578;51.622;7.046;2023-09-08T07:02:40;22.60;99.90
5118;DHT22;2578;51.622;7.046;2023-09-08T07:05:06;23.10;99.90
5118;DHT22;2578;51.622;7.046;2023-09-08T07:07:35;23.20;99.90
5118;DHT22;2578;51.622;7.046;2023-09-08T07:10:02;23.40;99.90
5118;DHT22;2578;51.622;7.046;2023-09-08T07:12:28;23.50;99.90
5118;DHT22;2578;51.622;7.046;2023-09-08T07:14:53;23.60;99.90
5118;DHT22;2578;51.622;7.046;2023-09-08T07:17:19;23.70;1.00
5118;DHT22;2578;51.622;7.046;2023-09-08T07:19:45;23.80;99.90
5118;DHT22;2578;51.622;7.046;2023-09-08T07:22:10;24.10;1.00
5118;DHT22;2578;51.622;7.046;2023-09-08T07:24:36;24.20;14.60
5118;DHT22;2578;51.622;7.046;2023-09-08T07:29:28;24.30;36.90
5118;DHT22;2578;51.622;7.046;2023-09-08T07:31:53;24.50;79.20
5118;DHT22;2578;51.622;7.046;2023-09-08T07:34:19;24.70;73.40
5118;DHT22;2578;51.622;7.046;2023-09-08T07:36:45;24.90;51.90
5118;DHT22;2578;51.622;7.046;2023-09-08T07:39:10;25.20;58.00
5118;DHT22;2578;51.622;7.046;2023-09-08T07:41:36;25.10;43.50
5118;DHT22;2578;51.622;7.046;2023-09-08T07:44:04;25.20;47.10
5118;DHT22;2578;51.622;7.046;2023-09-08T07:46:30;25.30;33.20
5118;DHT22;2578;51.622;7.046;2023-09-08T07:48:58;26.60;35.30
5118;DHT22;2578;51.622;7.046;2023-09-08T07:51:24;25.60;27.80
5118;DHT22;2578;51.622;7.046;2023-09-08T07:53:50;25.80;27.70
5118;DHT22;2578;51.622;7.046;2023-09-08T07:56:17;26.30;22.00
5118;DHT22;2578;51.622;7.046;2023-09-08T07:58:50;26.30;13.40
5118;DHT22;2578;51.622;7.046;2023-09-08T08:01:15;26.60;9.80
5118;DHT22;2578;51.622;7.046;2023-09-08T08:03:44;26.90;7.60
5118;DHT22;2578;51.622;7.046;2023-09-08T08:06:10;27.10;1.00
5118;DHT22;2578;51.622;7.046;2023-09-08T08:08:35;27.00;1.00
5118;DHT22;2578;51.622;7.046;2023-09-08T08:11:14;27.10;9.90
5118;DHT22;2578;51.622;7.046;2023-09-08T08:13:40;27.40;1.00
5118;DHT22;2578;51.622;7.046;2023-09-08T08:16:07;27.50;1.00
5118;DHT22;2578;51.622;7.046;2023-09-08T08:18:33;27.50;1.00
5118;DHT22;2578;51.622;7.046;2023-09-08T08:23:26;27.80;1.00
5118;DHT22;2578;51.622;7.046;2023-09-08T08:25:51;28.00;1.00
5118;DHT22;2578;51.622;7.046;2023-09-08T08:28:17;28.00;1.00
5118;DHT22;2578;51.622;7.046;2023-09-08T08:30:43;28.20;1.00
5118;DHT22;2578;51.622;7.046;2023-09-08T08:33:08;28.40;1.00
5118;DHT22;2578;51.622;7.046;2023-09-08T08:35:34;28.20;1.00
5118;DHT22;2578;51.622;7.046;2023-09-08T08:38:00;28.10;1.00
5118;DHT22;2578;51.622;7.046;2023-09-08T08:40:26;28.40;1.00
5118;DHT22;2578;51.622;7.046;2023-09-08T08:42:56;28.90;1.00
5118;DHT22;2578;51.622;7.046;2023-09-08T08:45:25;29.10;1.00
5118;DHT22;2578;51.622;7.046;2023-09-08T08:47:52;29.30;1.00
5118;DHT22;2578;51.622;7.046;2023-09-08T08:50:19;29.30;1.00
5118;DHT22;2578;51.622;7.046;2023-09-08T08:52:45;29.30;1.00
5118;DHT22;2578;51.622;7.046;2023-09-08T08:55:12;29.20;1.00
5118;DHT22;2578;51.622;7.046;2023-09-08T08:57:39;29.20;1.00
5118;DHT22;2578;51.622;7.046;2023-09-08T09:00:09;29.40;1.00
5118;DHT22;2578;51.622;7.046;2023-09-08T09:02:37;29.40;1.00
5118;DHT22;2578;51.622;7.046;2023-09-08T09:05:05;29.70;1.00
5118;DHT22;2578;51.622;7.046;2023-09-08T09:07:32;29.70;1.00
5118;DHT22;2578;51.622;7.046;2023-09-08T09:09:57;29.70;1.00
5118;DHT22;2578;51.622;7.046;2023-09-08T09:12:24;30.20;1.00
5118;DHT22;2578;51.622;7.046;2023-09-08T09:14:53;31.00;1.00
5118;DHT22;2578;51.622;7.046;2023-09-08T09:17:19;30.60;1.00
5118;DHT22;2578;51.622;7.046;2023-09-08T09:19:44;30.60;1.00
5118;DHT22;2578;51.622;7.046;2023-09-08T09:22:10;30.60;1.00
5118;DHT22;2578;51.622;7.046;2023-09-08T09:24:39;32.00;1.00
5118;DHT22;2578;51.622;7.046;2023-09-08T09:27:11;30.90;1.00
5118;DHT22;2578;51.622;7.046;2023-09-08T09:29:48;30.90;1.00
5118;DHT22;2578;51.622;7.046;2023-09-08T09:32:14;31.10;1.00
5118;DHT22;2578;51.622;7.046;2023-09-08T09:34:48;31.20;1.00
5118;DHT22;2578;51.622;7.046;2023-09-08T09:37:15;31.30;1.00
5118;DHT22;2578;51.622;7.046;2023-09-08T09:39:41;31.20;1.00
5118;DHT22;2578;51.622;7.046;2023-09-08T09:42:06;31.40;1.00
5118;DHT22;2578;51.622;7.046;2023-09-08T09:44:32;31.40;1.00
5118;DHT22;2578;51.622;7.046;2023-09-08T09:46:58;31.40;1.00
5118;DHT22;2578;51.622;7.046;2023-09-08T09:49:26;31.50;1.00
5118;DHT22;2578;51.622;7.046;2023-09-08T09:51:57;31.60;1.00
5118;DHT22;2578;51.622;7.046;2023-09-08T09:54:23;32.10;1.00
5118;DHT22;2578;51.622;7.046;2023-09-08T09:56:49;32.20;1.00
5118;DHT22;2578;51.622;7.046;2023-09-08T09:59:17;32.20;1.00
5118;DHT22;2578;51.622;7.046;2023-09-08T10:01:43;32.10;1.00
5118;DHT22;2578;51.622;7.046;2023-09-08T10:04:09;32.00;1.00
5118;DHT22;2578;51.622;7.046;2023-09-08T10:06:36;32.30;1.00
5118;DHT22;2578;51.622;7.046;2023-09-08T10:09:04;32.70;1.00
5118;DHT22;2578;51.622;7.046;2023-09-08T10:11:43;33.80;1.00
5118;DHT22;2578;51.622;7.046;2023-09-08T10:14:10;33.80;1.00
5118;DHT22;2578;51.622;7.046;2023-09-08T10:16:39;34.00;1.00
5118;DHT22;2578;51.622;7.046;2023-09-08T10:19:08;34.10;1.00
5118;DHT22;2578;51.622;7.046;2023-09-08T10:21:45;34.70;1.00
5118;DHT22;2578;51.622;7.046;2023-09-08T10:24:32;35.60;1.00
5118;DHT22;2578;51.622;7.046;2023-09-08T10:27:09;36.00;1.00
5118;DHT22;2578;51.622;7.046;2023-09-08T10:29:36;36.10;1.00
5118;DHT22;2578;51.622;7.046;2023-09-08T10:32:02;36.10;1.00
5118;DHT22;2578;51.622;7.046;2023-09-08T10:34:30;35.30;1.00
5118;DHT22;2578;51.622;7.046;2023-09-08T10:36:56;35.30;1.00
5118;DHT22;2578;51.622;7.046;2023-09-08T10:39:37;35.30;1.00
5118;DHT22;2578;51.622;7.046;2023-09-08T10:42:19;35.40;1.00
5118;DHT22;2578;51.622;7.046;2023-09-08T10:47:26;35.60;1.00
5118;DHT22;2578;51.622;7.046;2023-09-08T10:49:56;34.90;1.00
5118;DHT22;2578;51.622;7.046;2023-09-08T10:52:24;34.80;1.00
5118;DHT22;2578;51.622;7.046;2023-09-08T10:54:54;34.10;1.00
5118;DHT22;2578;51.622;7.046;2023-09-08T10:57:22;33.90;1.00
5118;DHT22;2578;51.622;7.046;2023-09-08T11:05:09;34.00;1.00
5118;DHT22;2578;51.622;7.046;2023-09-08T11:07:38;34.00;1.00
5118;DHT22;2578;51.622;7.046;2023-09-08T11:10:05;34.50;1.00
5118;DHT22;2578;51.622;7.046;2023-09-08T11:12:31;34.40;1.00
5118;DHT22;2578;51.622;7.046;2023-09-08T11:14:58;34.90;1.00
5118;DHT22;2578;51.622;7.046;2023-09-08T11:17:27;35.00;1.00
5118;DHT22;2578;51.622;7.046;2023-09-08T11:19:53;34.60;1.00
5118;DHT22;2578;51.622;7.046;2023-09-08T11:22:22;34.50;1.00
5118;DHT22;2578;51.622;7.046;2023-09-08T11:24:49;35.00;1.00
5118;DHT22;2578;51.622;7.046;2023-09-08T11:27:15;35.00;1.00
5118;DHT22;2578;51.622;7.046;2023-09-08T11:29:41;35.00;1.00
5118;DHT22;2578;51.622;7.046;2023-09-08T11:32:10;35.30;1.00
5118;DHT22;2578;51.622;7.046;2023-09-08T11:34:38;35.50;1.00
5118;DHT22;2578;51.622;7.046;2023-09-08T11:37:09;35.50;1.00
5118;DHT22;2578;51.622;7.046;2023-09-08T11:39:37;35.60;1.00
5118;DHT22;2578;51.622;7.046;2023-09-08T11:42:03;35.60;1.00
5118;DHT22;2578;51.622;7.046;2023-09-08T11:44:29;35.30;1.00
5118;DHT22;2578;51.622;7.046;2023-09-08T11:46:55;35.30;1.00
5118;DHT22;2578;51.622;7.046;2023-09-08T11:49:22;35.30;1.00
5118;DHT22;2578;51.622;7.046;2023-09-08T11:51:49;35.00;1.00
5118;DHT22;2578;51.622;7.046;2023-09-08T11:54:15;34.70;1.00
5118;DHT22;2578;51.622;7.046;2023-09-08T11:56:41;34.30;1.00
5118;DHT22;2578;51.622;7.046;2023-09-08T11:59:07;34.30;1.00
5118;DHT22;2578;51.622;7.046;2023-09-08T12:01:33;34.40;1.00
5118;DHT22;2578;51.622;7.046;2023-09-08T12:03:59;34.60;1.00
5118;DHT22;2578;51.622;7.046;2023-09-08T12:06:26;34.70;1.00
5118;DHT22;2578;51.622;7.046;2023-09-08T12:08:56;34.50;1.00
5118;DHT22;2578;51.622;7.046;2023-09-08T12:11:22;34.40;1.00
5118;DHT22;2578;51.622;7.046;2023-09-08T12:13:47;34.70;1.00
5118;DHT22;2578;51.622;7.046;2023-09-08T12:16:20;35.10;1.00
5118;DHT22;2578;51.622;7.046;2023-09-08T12:18:48;35.40;1.00
5118;DHT22;2578;51.622;7.046;2023-09-08T12:21:15;36.00;1.00
5118;DHT22;2578;51.622;7.046;2023-09-08T12:23:51;36.10;1.00
5118;DHT22;2578;51.622;7.046;2023-09-08T12:26:17;36.20;1.00
5118;DHT22;2578;51.622;7.046;2023-09-08T12:28:44;36.30;1.00
5118;DHT22;2578;51.622;7.046;2023-09-08T12:31:11;37.10;1.00
5118;DHT22;2578;51.622;7.046;2023-09-08T12:33:38;36.90;1.00
5118;DHT22;2578;51.622;7.046;2023-09-08T12:36:14;36.60;1.00
5118;DHT22;2578;51.622;7.046;2023-09-08T12:38:40;36.00;1.00
5118;DHT22;2578;51.622;7.046;2023-09-08T12:41:06;35.70;1.00
5118;DHT22;2578;51.622;7.046;2023-09-08T12:43:31;35.80;1.00
5118;DHT22;2578;51.622;7.046;2023-09-08T12:45:57;36.10;1.00
5118;DHT22;2578;51.622;7.046;2023-09-08T12:48:23;36.10;1.00
5118;DHT22;2578;51.622;7.046;2023-09-08T12:50:49;36.30;1.00
5118;DHT22;2578;51.622;7.046;2023-09-08T12:53:16;36.60;1.00
5118;DHT22;2578;51.622;7.046;2023-09-08T12:55:45;37.40;1.00
5118;DHT22;2578;51.622;7.046;2023-09-08T12:58:11;37.50;1.00
5118;DHT22;2578;51.622;7.046;2023-09-08T13:00:37;37.10;1.00
5118;DHT22;2578;51.622;7.046;2023-09-08T13:03:02;37.10;1.00
5118;DHT22;2578;51.622;7.046;2023-09-08T13:05:28;37.20;1.00
5118;DHT22;2578;51.622;7.046;2023-09-08T13:07:53;37.30;1.00
5118;DHT22;2578;51.622;7.046;2023-09-08T13:10:19;37.40;1.00
5118;DHT22;2578;51.622;7.046;2023-09-08T13:12:45;37.00;1.00
5118;DHT22;2578;51.622;7.046;2023-09-08T13:15:11;36.40;1.00
5118;DHT22;2578;51.622;7.046;2023-09-08T13:17:37;36.60;1.00
5118;DHT22;2578;51.622;7.046;2023-09-08T13:20:03;36.90;1.00
5118;DHT22;2578;51.622;7.046;2023-09-08T13:22:28;36.60;1.00
5118;DHT22;2578;51.622;7.046;2023-09-08T13:24:54;37.30;1.00
5118;DHT22;2578;51.622;7.046;2023-09-08T13:27:20;37.30;1.00
5118;DHT22;2578;51.622;7.046;2023-09-08T13:29:46;37.60;1.00
5118;DHT22;2578;51.622;7.046;2023-09-08T13:32:12;37.70;1.00
5118;DHT22;2578;51.622;7.046;2023-09-08T13:34:37;38.40;1.00
5118;DHT22;2578;51.622;7.046;2023-09-08T13:37:04;38.40;1.00
5118;DHT22;2578;51.622;7.046;2023-09-08T13:39:30;38.50;1.00
5118;DHT22;2578;51.622;7.046;2023-09-08T13:41:58;38.10;1.00
5118;DHT22;2578;51.622;7.046;2023-09-08T13:44:24;38.50;1.00
5118;DHT22;2578;51.622;7.046;2023-09-08T13:46:51;38.50;1.00
5118;DHT22;2578;51.622;7.046;2023-09-08T13:49:17;38.50;1.00
5118;DHT22;2578;51.622;7.046;2023-09-08T13:51:44;38.70;1.00
5118;DHT22;2578;51.622;7.046;2023-09-08T13:54:10;38.70;1.00
5118;DHT22;2578;51.622;7.046;2023-09-08T13:56:41;38.30;1.00
5118;DHT22;2578;51.622;7.046;2023-09-08T13:59:08;38.70;1.00
5118;DHT22;2578;51.622;7.046;2023-09-08T14:01:34;39.00;1.00
5118;DHT22;2578;51.622;7.046;2023-09-08T14:04:00;38.70;1.00
5118;DHT22;2578;51.622;7.046;2023-09-08T14:06:28;38.10;1.00
5118;DHT22;2578;51.622;7.046;2023-09-08T14:08:54;38.00;1.00
5118;DHT22;2578;51.622;7.046;2023-09-08T14:11:22;37.60;1.00
5118;DHT22;2578;51.622;7.046;2023-09-08T14:13:47;37.50;1.00
5118;DHT22;2578;51.622;7.046;2023-09-08T14:16:13;37.40;1.00
5118;DHT22;2578;51.622;7.046;2023-09-08T14:18:39;37.50;1.00
5118;DHT22;2578;51.622;7.046;2023-09-08T14:21:06;37.50;1.00
5118;DHT22;2578;51.622;7.046;2023-09-08T14:23:32;37.90;1.00
5118;DHT22;2578;51.622;7.046;2023-09-08T14:25:59;38.00;1.00
5118;DHT22;2578;51.622;7.046;2023-09-08T14:28:25;37.90;1.00
5118;DHT22;2578;51.622;7.046;2023-09-08T14:30:52;37.80;1.00
5118;DHT22;2578;51.622;7.046;2023-09-08T14:33:17;37.60;1.00
5118;DHT22;2578;51.622;7.046;2023-09-08T14:35:43;37.40;1.00
5118;DHT22;2578;51.622;7.046;2023-09-08T14:38:09;37.10;1.00
5118;DHT22;2578;51.622;7.046;2023-09-08T14:40:35;37.00;1.00
5118;DHT22;2578;51.622;7.046;2023-09-08T14:43:01;37.10;1.00
5118;DHT22;2578;51.622;7.046;2023-09-08T14:45:27;36.90;1.00
5118;DHT22;2578;51.622;7.046;2023-09-08T14:47:53;36.80;1.00
5118;DHT22;2578;51.622;7.046;2023-09-08T14:50:19;36.90;1.00
5118;DHT22;2578;51.622;7.046;2023-09-08T14:52:45;37.10;1.00
5118;DHT22;2578;51.622;7.046;2023-09-08T14:55:11;37.40;1.00
5118;DHT22;2578;51.622;7.046;2023-09-08T14:57:36;37.50;1.00
5118;DHT22;2578;51.622;7.046;2023-09-08T15:00:03;37.80;1.00
5118;DHT22;2578;51.622;7.046;2023-09-08T15:02:33;37.80;1.00
5118;DHT22;2578;51.622;7.046;2023-09-08T15:04:58;37.50;1.00
5118;DHT22;2578;51.622;7.046;2023-09-08T15:07:24;37.50;1.00
5118;DHT22;2578;51.622;7.046;2023-09-08T15:09:50;37.30;1.00
5118;DHT22;2578;51.622;7.046;2023-09-08T15:12:18;37.60;1.00
5118;DHT22;2578;51.622;7.046;2023-09-08T15:14:44;38.00;1.00
5118;DHT22;2578;51.622;7.046;2023-09-08T15:17:11;38.00;1.00
5118;DHT22;2578;51.622;7.046;2023-09-08T15:22:04;36.40;1.00
5118;DHT22;2578;51.622;7.046;2023-09-08T15:26:56;38.20;1.00
5118;DHT22;2578;51.622;7.046;2023-09-08T15:31:51;38.30;1.00
5118;DHT22;2578;51.622;7.046;2023-09-08T15:34:17;38.30;1.00
5118;DHT22;2578;51.622;7.046;2023-09-08T15:36:42;38.40;1.00
5118;DHT22;2578;51.622;7.046;2023-09-08T15:39:08;37.60;1.00
5118;DHT22;2578;51.622;7.046;2023-09-08T15:41:34;37.50;1.00
5118;DHT22;2578;51.622;7.046;2023-09-08T15:46:25;37.50;1.00
5118;DHT22;2578;51.622;7.046;2023-09-08T15:48:51;37.50;1.00
5118;DHT22;2578;51.622;7.046;2023-09-08T15:51:17;37.50;1.00
5118;DHT22;2578;51.622;7.046;2023-09-08T15:53:42;37.70;1.00
5118;DHT22;2578;51.622;7.046;2023-09-08T15:56:11;36.90;1.00
5118;DHT22;2578;51.622;7.046;2023-09-08T15:58:37;36.80;1.00
5118;DHT22;2578;51.622;7.046;2023-09-08T16:01:03;35.90;1.00
5118;DHT22;2578;51.622;7.046;2023-09-08T16:03:32;35.40;1.00
5118;DHT22;2578;51.622;7.046;2023-09-08T16:05:58;35.20;1.00
5118;DHT22;2578;51.622;7.046;2023-09-08T16:08:24;35.00;1.00
5118;DHT22;2578;51.622;7.046;2023-09-08T16:10:49;35.00;1.00
5118;DHT22;2578;51.622;7.046;2023-09-08T16:13:15;35.20;1.00
5118;DHT22;2578;51.622;7.046;2023-09-08T16:15:41;35.30;1.00
5118;DHT22;2578;51.622;7.046;2023-09-08T16:18:06;35.30;1.00
5118;DHT22;2578;51.622;7.046;2023-09-08T16:20:35;35.30;1.00
5118;DHT22;2578;51.622;7.046;2023-09-08T16:23:01;35.10;1.00
5118;DHT22;2578;51.622;7.046;2023-09-08T16:25:28;34.70;1.00
5118;DHT22;2578;51.622;7.046;2023-09-08T16:27:54;34.80;1.00
5118;DHT22;2578;51.622;7.046;2023-09-08T16:30:20;34.10;1.00
5118;DHT22;2578;51.622;7.046;2023-09-08T16:32:47;34.40;1.00
5118;DHT22;2578;51.622;7.046;2023-09-08T16:35:12;34.20;1.00
5118;DHT22;2578;51.622;7.046;2023-09-08T16:37:38;34.20;1.00
5118;DHT22;2578;51.622;7.046;2023-09-08T16:40:04;34.10;1.00
5118;DHT22;2578;51.622;7.046;2023-09-08T16:42:30;34.00;1.00
5118;DHT22;2578;51.622;7.046;2023-09-08T16:44:56;33.80;1.00
5118;DHT22;2578;51.622;7.046;2023-09-08T16:52:16;33.50;1.00